PWSweather.com
Personal Weather Stations
Station Observations
KNYSYRAC2
Fairmount Hills, Fairmount, NY 13219

Fairmount HillsFairmount, NY 13219

Lat: 43.03602, Lon: -76.247151

Elevation: 663

Station Type: Ambient Weather WS-2080

http://weather.cerchia.com

High Low Average
Temperature 47.4°F8.6°C 24.3°F-4.3°C 37.5°F3.1°C
Dew Point 44.0°F6.7°C 17.7°F-7.9°C 29.9°F-1.2°C
Winds 7.0 mph 11.3 kmh Calm Calm 2.0 mph SE3.2 kmh SE
Wind Gusts 19.0 mph30.6 kmh -- 8.0 mph12.9 kmh
Humidity 96% 52% 75%
Pressure 29.94 in1013.9 mb 29.10 in985.4 mb -
Precipitation 0.24 in6.1 mm - -
Hour Temp Dew Point Humidity Winds Wind Gusts Pressure Precip Precip Rate Daily Precip Total
12:00 AM 24.5°F-4.2°C 18.0°F-7.8°C 76% 0.3 mph SE0.5 kmh SE 2.0 mph3.2 kmh 29.94 in1013.9 mb 0.00 in0.0 mm 0.00 in0.0 mm 0.00 in0.0 mm
12:15 AM 24.3°F-4.3°C 17.9°F-7.8°C 76% 1.0 mph SE1.6 kmh SE 2.8 mph4.5 kmh 29.93 in1013.5 mb 0.00 in0.0 mm 0.00 in0.0 mm 0.00 in0.0 mm
12:30 AM 24.7°F-4.1°C 18.2°F-7.7°C 76% 0.3 mph SE0.5 kmh SE 3.9 mph6.3 kmh 29.92 in1013.2 mb 0.00 in0.0 mm 0.00 in0.0 mm 0.00 in0.0 mm
12:45 AM 24.5°F-4.2°C 17.7°F-7.9°C 75% Calm Calm -- 29.91 in1012.9 mb 0.00 in0.0 mm 0.00 in0.0 mm 0.00 in0.0 mm
01:00 AM 24.3°F-4.3°C 17.9°F-7.8°C 76% 0.5 mph SE0.8 kmh SE 2.0 mph3.2 kmh 29.91 in1012.9 mb 0.00 in0.0 mm 0.00 in0.0 mm 0.00 in0.0 mm
01:15 AM 24.9°F-3.9°C 18.7°F-7.4°C 77% 1.5 mph SE2.4 kmh SE 2.8 mph4.5 kmh 29.89 in1012.2 mb 0.00 in0.0 mm 0.00 in0.0 mm 0.00 in0.0 mm
01:30 AM 25.6°F-3.6°C 18.8°F-7.3°C 75% 0.2 mph SE0.3 kmh SE 2.8 mph4.5 kmh 29.88 in1011.9 mb 0.00 in0.0 mm 0.00 in0.0 mm 0.00 in0.0 mm
01:45 AM 26.5°F-3.1°C 19.6°F-6.9°C 75% 1.2 mph SE1.9 kmh SE 8.7 mph14.0 kmh 29.86 in1011.2 mb 0.00 in0.0 mm 0.00 in0.0 mm 0.00 in0.0 mm
02:00 AM 26.5°F-3.1°C 19.0°F-7.2°C 73% 0.4 mph SE0.6 kmh SE 3.9 mph6.3 kmh 29.85 in1010.8 mb 0.00 in0.0 mm 0.00 in0.0 mm 0.00 in0.0 mm
02:15 AM 26.3°F-3.2°C 18.8°F-7.3°C 73% 0.2 mph SE0.3 kmh SE 2.0 mph3.2 kmh 29.86 in1011.2 mb 0.00 in0.0 mm 0.00 in0.0 mm 0.00 in0.0 mm
02:30 AM 26.0°F-3.3°C 18.2°F-7.7°C 72% 0.1 mph SE0.2 kmh SE 2.0 mph3.2 kmh 29.85 in1010.8 mb 0.00 in0.0 mm 0.00 in0.0 mm 0.00 in0.0 mm
02:45 AM 25.6°F-3.6°C 18.1°F-7.7°C 73% 0.3 mph SE0.5 kmh SE 2.0 mph3.2 kmh 29.84 in1010.5 mb 0.00 in0.0 mm 0.00 in0.0 mm 0.00 in0.0 mm
03:00 AM 25.2°F-3.8°C 18.1°F-7.7°C 74% 0.2 mph SE0.3 kmh SE 2.0 mph3.2 kmh 29.83 in1010.2 mb 0.00 in0.0 mm 0.00 in0.0 mm 0.00 in0.0 mm
03:15 AM 25.1°F-3.8°C 18.2°F-7.7°C 75% 0.1 mph SE0.2 kmh SE 2.0 mph3.2 kmh 29.83 in1010.2 mb 0.00 in0.0 mm 0.00 in0.0 mm 0.00 in0.0 mm
03:30 AM 25.2°F-3.8°C 18.7°F-7.4°C 76% 0.2 mph SE0.3 kmh SE 2.0 mph3.2 kmh 29.81 in1009.5 mb 0.00 in0.0 mm 0.00 in0.0 mm 0.00 in0.0 mm
03:45 AM 25.6°F-3.6°C 18.8°F-7.3°C 75% Calm Calm -- 29.79 in1008.8 mb 0.00 in0.0 mm 0.00 in0.0 mm 0.00 in0.0 mm
04:00 AM 25.6°F-3.6°C 18.8°F-7.3°C 75% 0.1 mph SE0.2 kmh SE 2.0 mph3.2 kmh 29.79 in1008.8 mb 0.00 in0.0 mm 0.00 in0.0 mm 0.00 in0.0 mm
04:15 AM 25.6°F-3.6°C 18.8°F-7.3°C 75% 0.1 mph ESE0.2 kmh ESE 2.8 mph4.5 kmh 29.78 in1008.5 mb 0.00 in0.0 mm 0.00 in0.0 mm 0.00 in0.0 mm
04:30 AM 25.1°F-3.8°C 18.2°F-7.7°C 75% Calm Calm -- 29.78 in1008.5 mb 0.00 in0.0 mm 0.00 in0.0 mm 0.00 in0.0 mm
04:45 AM 25.1°F-3.8°C 18.2°F-7.7°C 75% 0.5 mph SE0.8 kmh SE 2.0 mph3.2 kmh 29.77 in1008.1 mb 0.00 in0.0 mm 0.00 in0.0 mm 0.00 in0.0 mm
05:00 AM 24.9°F-3.9°C 18.4°F-7.6°C 76% Calm Calm -- 29.77 in1008.1 mb 0.00 in0.0 mm 0.00 in0.0 mm 0.00 in0.0 mm
05:15 AM 24.9°F-3.9°C 18.4°F-7.6°C 76% 0.1 mph SE0.2 kmh SE 2.0 mph3.2 kmh 29.75 in1007.5 mb 0.00 in0.0 mm 0.00 in0.0 mm 0.00 in0.0 mm
05:30 AM 25.4°F-3.7°C 19.2°F-7.1°C 77% Calm Calm -- 29.75 in1007.5 mb 0.00 in0.0 mm 0.00 in0.0 mm 0.00 in0.0 mm
05:45 AM 25.8°F-3.4°C 19.3°F-7.1°C 76% 0.3 mph SE0.5 kmh SE 2.8 mph4.5 kmh 29.73 in1006.8 mb 0.00 in0.0 mm 0.00 in0.0 mm 0.00 in0.0 mm
06:00 AM 26.1°F-3.3°C 19.6°F-6.9°C 76% 0.5 mph NE0.8 kmh NE 2.8 mph4.5 kmh 29.73 in1006.8 mb 0.00 in0.0 mm 0.00 in0.0 mm 0.00 in0.0 mm
06:15 AM 26.0°F-3.3°C 19.1°F-7.2°C 75% 0.2 mph SE0.3 kmh SE 2.0 mph3.2 kmh 29.71 in1006.1 mb 0.00 in0.0 mm 0.00 in0.0 mm 0.00 in0.0 mm
06:30 AM 26.0°F-3.3°C 19.1°F-7.2°C 75% 0.6 mph SE1.0 kmh SE 2.8 mph4.5 kmh 29.70 in1005.8 mb 0.00 in0.0 mm 0.00 in0.0 mm 0.00 in0.0 mm
06:45 AM 26.7°F-2.9°C 19.8°F-6.8°C 75% 0.9 mph ENE1.4 kmh ENE 5.6 mph9.0 kmh 29.69 in1005.4 mb 0.00 in0.0 mm 0.00 in0.0 mm 0.00 in0.0 mm
07:00 AM 27.0°F-2.8°C 20.2°F-6.6°C 75% 1.3 mph NE2.1 kmh NE 5.6 mph9.0 kmh 29.70 in1005.8 mb 0.00 in0.0 mm 0.00 in0.0 mm 0.00 in0.0 mm
07:15 AM 28.3°F-2.1°C 22.9°F-5.1°C 80% 1.3 mph SE2.1 kmh SE 3.9 mph6.3 kmh 29.70 in1005.8 mb 0.00 in0.0 mm 0.00 in0.0 mm 0.00 in0.0 mm
07:30 AM 29.6°F-1.3°C 23.5°F-4.7°C 78% 2.5 mph NNE4.0 kmh NNE 6.7 mph10.8 kmh 29.69 in1005.4 mb 0.00 in0.0 mm 0.00 in0.0 mm 0.00 in0.0 mm
07:45 AM 30.8°F-0.7°C 24.1°F-4.4°C 76% 1.8 mph NE2.9 kmh NE 8.7 mph14.0 kmh 29.69 in1005.4 mb 0.00 in0.0 mm 0.00 in0.0 mm 0.00 in0.0 mm
08:00 AM 33.3°F0.7°C 25.9°F-3.4°C 74% 1.8 mph ENE2.9 kmh ENE 6.7 mph10.8 kmh 29.68 in1005.1 mb 0.00 in0.0 mm 0.00 in0.0 mm 0.00 in0.0 mm
08:15 AM 34.1°F1.2°C 25.3°F-3.7°C 70% 1.5 mph NE2.4 kmh NE 6.7 mph10.8 kmh 29.68 in1005.1 mb 0.00 in0.0 mm 0.00 in0.0 mm 0.00 in0.0 mm
08:30 AM 35.3°F1.8°C 26.2°F-3.2°C 69% 1.9 mph SE3.1 kmh SE 7.5 mph12.1 kmh 29.67 in1004.7 mb 0.00 in0.0 mm 0.00 in0.0 mm 0.00 in0.0 mm
08:45 AM 38.4°F3.6°C 28.7°F-1.8°C 68% 4.0 mph S6.4 kmh S 13.4 mph21.6 kmh 29.66 in1004.4 mb 0.00 in0.0 mm 0.00 in0.0 mm 0.00 in0.0 mm
09:00 AM 39.8°F4.3°C 28.2°F-2.1°C 63% 4.3 mph SE6.9 kmh SE 11.5 mph18.5 kmh 29.64 in1003.7 mb 0.00 in0.0 mm 0.00 in0.0 mm 0.00 in0.0 mm
09:15 AM 40.4°F4.7°C 28.0°F-2.2°C 61% 2.6 mph SE4.2 kmh SE 7.5 mph12.1 kmh 29.62 in1003.0 mb 0.00 in0.0 mm 0.00 in0.0 mm 0.00 in0.0 mm
09:30 AM 41.4°F5.2°C 28.2°F-2.1°C 59% 3.3 mph SSE5.3 kmh SSE 12.3 mph19.8 kmh 29.60 in1002.4 mb 0.00 in0.0 mm 0.00 in0.0 mm 0.00 in0.0 mm
09:45 AM 42.9°F6.1°C 27.8°F-2.3°C 55% 5.1 mph S8.2 kmh S 13.4 mph21.6 kmh 29.59 in1002.0 mb 0.00 in0.0 mm 0.00 in0.0 mm 0.00 in0.0 mm
10:00 AM 42.7°F5.9°C 27.2°F-2.7°C 54% 4.8 mph SSE7.7 kmh SSE 10.3 mph16.6 kmh 29.59 in1002.0 mb 0.01 in0.3 mm 0.01 in0.3 mm 0.01 in0.3 mm
10:15 AM 42.5°F5.8°C 27.0°F-2.8°C 54% 2.2 mph SW3.5 kmh SW 6.7 mph10.8 kmh 29.61 in1002.7 mb 0.01 in0.3 mm 0.00 in0.0 mm 0.01 in0.3 mm
10:30 AM 42.2°F5.7°C 26.7°F-2.9°C 54% 1.5 mph SSW2.4 kmh SSW 14.3 mph23.0 kmh 29.62 in1003.0 mb 0.01 in0.3 mm 0.00 in0.0 mm 0.01 in0.3 mm
10:45 AM 42.3°F5.7°C 26.9°F-2.8°C 54% 0.4 mph SE0.6 kmh SE 3.9 mph6.3 kmh 29.60 in1002.4 mb 0.01 in0.3 mm 0.00 in0.0 mm 0.01 in0.3 mm
11:00 AM 42.5°F5.8°C 27.0°F-2.8°C 54% 1.7 mph E2.7 kmh E 8.7 mph14.0 kmh 29.59 in1002.0 mb 0.00 in0.0 mm 0.00 in0.0 mm 0.01 in0.3 mm
11:15 AM 43.1°F6.2°C 27.5°F-2.5°C 54% 2.8 mph SE4.5 kmh SE 9.5 mph15.3 kmh 29.58 in1001.7 mb 0.00 in0.0 mm 0.00 in0.0 mm 0.01 in0.3 mm
11:30 AM 43.4°F6.3°C 27.4°F-2.6°C 53% 5.1 mph SSE8.2 kmh SSE 14.3 mph23.0 kmh 29.56 in1001.0 mb 0.00 in0.0 mm 0.00 in0.0 mm 0.01 in0.3 mm
11:45 AM 43.8°F6.6°C 27.3°F-2.6°C 52% 4.3 mph S6.9 kmh S 14.3 mph23.0 kmh 29.54 in1000.3 mb 0.00 in0.0 mm 0.00 in0.0 mm 0.01 in0.3 mm
12:00 PM 43.8°F6.6°C 27.7°F-2.4°C 53% 3.7 mph S6.0 kmh S 11.5 mph18.5 kmh 29.53 in1000.0 mb 0.00 in0.0 mm 0.00 in0.0 mm 0.01 in0.3 mm
12:15 PM 44.1°F6.7°C 28.1°F-2.2°C 53% 4.9 mph S7.9 kmh S 13.4 mph21.6 kmh 29.52 in999.7 mb 0.00 in0.0 mm 0.00 in0.0 mm 0.01 in0.3 mm
12:30 PM 44.3°F6.8°C 28.2°F-2.1°C 53% 5.0 mph S8.0 kmh S 14.3 mph23.0 kmh 29.51 in999.3 mb 0.00 in0.0 mm 0.00 in0.0 mm 0.01 in0.3 mm
12:45 PM 44.5°F6.9°C 28.9°F-1.7°C 54% 4.3 mph S6.9 kmh S 10.3 mph16.6 kmh 29.51 in999.3 mb 0.00 in0.0 mm 0.00 in0.0 mm 0.01 in0.3 mm
01:00 PM 44.9°F7.2°C 29.7°F-1.3°C 55% 4.5 mph S7.2 kmh S 11.5 mph18.5 kmh 29.50 in999.0 mb 0.00 in0.0 mm 0.00 in0.0 mm 0.01 in0.3 mm
01:15 PM 45.0°F7.2°C 29.8°F-1.2°C 55% 5.3 mph S8.5 kmh S 17.1 mph27.5 kmh 29.50 in999.0 mb 0.00 in0.0 mm 0.00 in0.0 mm 0.01 in0.3 mm
01:30 PM 45.2°F7.3°C 30.9°F-0.6°C 57% 4.4 mph SSE7.1 kmh SSE 10.3 mph16.6 kmh 29.50 in999.0 mb 0.00 in0.0 mm 0.00 in0.0 mm 0.01 in0.3 mm
01:45 PM 45.4°F7.4°C 32.3°F0.2°C 60% 5.5 mph S8.9 kmh S 17.1 mph27.5 kmh 29.49 in998.6 mb 0.00 in0.0 mm 0.00 in0.0 mm 0.01 in0.3 mm
02:00 PM 45.4°F7.4°C 33.1°F0.6°C 62% 5.8 mph S9.3 kmh S 19.0 mph30.6 kmh 29.49 in998.6 mb 0.00 in0.0 mm 0.00 in0.0 mm 0.01 in0.3 mm
02:15 PM 45.4°F7.4°C 33.5°F0.8°C 63% 4.6 mph S7.4 kmh S 12.3 mph19.8 kmh 29.48 in998.3 mb 0.00 in0.0 mm 0.00 in0.0 mm 0.01 in0.3 mm
02:30 PM 45.2°F7.3°C 33.8°F1.0°C 64% 4.8 mph SSW7.7 kmh SSW 11.5 mph18.5 kmh 29.46 in997.6 mb 0.00 in0.0 mm 0.00 in0.0 mm 0.01 in0.3 mm
02:45 PM 45.2°F7.3°C 34.5°F1.4°C 66% 5.3 mph SSW8.5 kmh SSW 12.3 mph19.8 kmh 29.46 in997.6 mb 0.00 in0.0 mm 0.00 in0.0 mm 0.01 in0.3 mm
03:00 PM 45.0°F7.2°C 34.7°F1.5°C 67% 4.1 mph S6.6 kmh S 17.1 mph27.5 kmh 29.45 in997.3 mb 0.00 in0.0 mm 0.00 in0.0 mm 0.01 in0.3 mm
03:15 PM 45.0°F7.2°C 35.8°F2.1°C 70% 5.9 mph S9.5 kmh S 17.1 mph27.5 kmh 29.43 in996.6 mb 0.00 in0.0 mm 0.00 in0.0 mm 0.01 in0.3 mm
03:30 PM 44.9°F7.2°C 36.4°F2.4°C 72% 4.5 mph S7.2 kmh S 11.5 mph18.5 kmh 29.43 in996.6 mb 0.00 in0.0 mm 0.00 in0.0 mm 0.01 in0.3 mm
03:45 PM 44.9°F7.2°C 36.7°F2.6°C 73% 5.9 mph S9.5 kmh S 13.4 mph21.6 kmh 29.42 in996.3 mb 0.00 in0.0 mm 0.00 in0.0 mm 0.01 in0.3 mm
04:00 PM 44.7°F7.1°C 36.9°F2.7°C 74% 4.7 mph S7.6 kmh S 13.4 mph21.6 kmh 29.41 in995.9 mb 0.00 in0.0 mm 0.00 in0.0 mm 0.01 in0.3 mm
04:15 PM 44.7°F7.1°C 36.9°F2.7°C 74% 4.9 mph S7.9 kmh S 14.3 mph23.0 kmh 29.41 in995.9 mb 0.00 in0.0 mm 0.00 in0.0 mm 0.01 in0.3 mm
04:30 PM 44.7°F7.1°C 37.2°F2.9°C 75% 4.4 mph SSE7.1 kmh SSE 9.5 mph15.3 kmh 29.40 in995.6 mb 0.00 in0.0 mm 0.00 in0.0 mm 0.01 in0.3 mm
04:45 PM 44.9°F7.2°C 37.8°F3.2°C 76% 5.5 mph S8.9 kmh S 12.3 mph19.8 kmh 29.39 in995.3 mb 0.00 in0.0 mm 0.00 in0.0 mm 0.01 in0.3 mm
05:00 PM 44.7°F7.1°C 37.9°F3.3°C 77% 5.3 mph S8.5 kmh S 12.3 mph19.8 kmh 29.39 in995.3 mb 0.00 in0.0 mm 0.00 in0.0 mm 0.01 in0.3 mm
05:15 PM 44.1°F6.7°C 38.0°F3.3°C 79% 3.1 mph SSE5.0 kmh SSE 9.5 mph15.3 kmh 29.38 in994.9 mb 0.00 in0.0 mm 0.00 in0.0 mm 0.01 in0.3 mm
05:30 PM 43.4°F6.3°C 38.9°F3.8°C 84% 1.9 mph SE3.1 kmh SE 5.6 mph9.0 kmh 29.38 in994.9 mb 0.02 in0.5 mm 0.08 in2.0 mm 0.04 in1.0 mm
05:45 PM 42.7°F5.9°C 39.1°F3.9°C 87% 0.9 mph NNE1.4 kmh NNE 3.9 mph6.3 kmh 29.36 in994.2 mb 0.06 in1.5 mm 0.16 in4.1 mm 0.07 in1.8 mm
06:00 PM 42.3°F5.7°C 39.3°F4.1°C 89% 0.6 mph NNE1.0 kmh NNE 5.6 mph9.0 kmh 29.36 in994.2 mb 0.07 in1.8 mm 0.01 in0.3 mm 0.08 in2.0 mm
06:15 PM 42.2°F5.7°C 39.7°F4.3°C 91% 0.9 mph E1.4 kmh E 5.6 mph9.0 kmh 29.35 in993.9 mb 0.08 in2.0 mm 0.04 in1.0 mm 0.09 in2.3 mm
06:30 PM 42.2°F5.7°C 40.0°F4.4°C 92% 1.8 mph NE2.9 kmh NE 7.5 mph12.1 kmh 29.35 in993.9 mb 0.09 in2.3 mm 0.04 in1.0 mm 0.13 in3.3 mm
06:45 PM 42.0°F5.6°C 40.1°F4.5°C 93% 1.4 mph E2.3 kmh E 4.8 mph7.7 kmh 29.34 in993.6 mb 0.08 in2.0 mm 0.00 in0.0 mm 0.15 in3.8 mm
07:00 PM 42.0°F5.6°C 40.4°F4.7°C 94% 1.3 mph NNE2.1 kmh NNE 4.8 mph7.7 kmh 29.33 in993.2 mb 0.09 in2.3 mm 0.01 in0.3 mm 0.18 in4.6 mm
07:15 PM 42.0°F5.6°C 40.4°F4.7°C 94% 1.6 mph NE2.6 kmh NE 6.7 mph10.8 kmh 29.33 in993.2 mb 0.09 in2.3 mm 0.00 in0.0 mm 0.20 in5.1 mm
07:30 PM 42.0°F5.6°C 40.7°F4.8°C 95% 0.9 mph E1.4 kmh E 4.8 mph7.7 kmh 29.31 in992.6 mb 0.08 in2.0 mm 0.00 in0.0 mm 0.21 in5.3 mm
07:45 PM 42.2°F5.7°C 40.8°F4.9°C 95% 1.5 mph NE2.4 kmh NE 4.8 mph7.7 kmh 29.30 in992.2 mb 0.06 in1.5 mm 0.00 in0.0 mm 0.21 in5.3 mm
08:00 PM 42.2°F5.7°C 40.8°F4.9°C 95% 1.0 mph NNE1.6 kmh NNE 5.6 mph9.0 kmh 29.28 in991.5 mb 0.04 in1.0 mm 0.00 in0.0 mm 0.21 in5.3 mm
08:15 PM 42.3°F5.7°C 41.0°F5.0°C 95% 2.6 mph SE4.2 kmh SE 10.3 mph16.6 kmh 29.27 in991.2 mb 0.01 in0.3 mm 0.00 in0.0 mm 0.21 in5.3 mm
08:30 PM 42.5°F5.8°C 41.2°F5.1°C 95% 2.1 mph NNE3.4 kmh NNE 6.7 mph10.8 kmh 29.25 in990.5 mb 0.01 in0.3 mm 0.00 in0.0 mm 0.22 in5.6 mm
08:45 PM 42.5°F5.8°C 41.2°F5.1°C 95% 1.0 mph N1.6 kmh N 5.6 mph9.0 kmh 29.26 in990.9 mb 0.01 in0.3 mm 0.00 in0.0 mm 0.22 in5.6 mm
09:00 PM 42.5°F5.8°C 41.2°F5.1°C 95% 0.1 mph S0.2 kmh S 2.0 mph3.2 kmh 29.24 in990.2 mb 0.01 in0.3 mm 0.00 in0.0 mm 0.22 in5.6 mm
09:15 PM 42.5°F5.8°C 41.2°F5.1°C 95% 0.3 mph SW0.5 kmh SW 3.9 mph6.3 kmh 29.24 in990.2 mb 0.01 in0.3 mm 0.00 in0.0 mm 0.22 in5.6 mm
09:30 PM 42.9°F6.1°C 41.8°F5.4°C 96% 0.1 mph NE0.2 kmh NE 3.9 mph6.3 kmh 29.23 in989.8 mb 0.00 in0.0 mm 0.00 in0.0 mm 0.22 in5.6 mm
09:45 PM 43.6°F6.4°C 42.3°F5.7°C 95% 0.9 mph NE1.4 kmh NE 7.5 mph12.1 kmh 29.22 in989.5 mb 0.00 in0.0 mm 0.00 in0.0 mm 0.22 in5.6 mm
10:00 PM 44.5°F6.9°C 43.4°F6.3°C 96% 2.2 mph SE3.5 kmh SE 8.7 mph14.0 kmh 29.20 in988.8 mb 0.00 in0.0 mm 0.00 in0.0 mm 0.22 in5.6 mm
10:15 PM 45.6°F7.6°C 44.0°F6.7°C 94% 4.6 mph S7.4 kmh S 15.1 mph24.3 kmh 29.18 in988.1 mb 0.00 in0.0 mm 0.00 in0.0 mm 0.22 in5.6 mm
10:30 PM 46.5°F8.1°C 43.7°F6.5°C 90% 5.8 mph SSE9.3 kmh SSE 15.1 mph24.3 kmh 29.14 in986.8 mb 0.00 in0.0 mm 0.00 in0.0 mm 0.22 in5.6 mm
10:45 PM 46.7°F8.2°C 43.3°F6.3°C 88% 3.7 mph SE6.0 kmh SE 16.2 mph26.1 kmh 29.12 in986.1 mb 0.00 in0.0 mm 0.00 in0.0 mm 0.22 in5.6 mm
11:00 PM 47.4°F8.6°C 43.7°F6.5°C 87% 6.4 mph S10.3 kmh S 16.2 mph26.1 kmh 29.12 in986.1 mb 0.00 in0.0 mm 0.00 in0.0 mm 0.22 in5.6 mm
11:15 PM 47.4°F8.6°C 43.7°F6.5°C 87% 2.8 mph S4.5 kmh S 14.3 mph23.0 kmh 29.12 in986.1 mb 0.01 in0.3 mm 0.04 in1.0 mm 0.24 in6.1 mm
11:30 PM 47.4°F8.6°C 44.0°F6.7°C 88% 7.0 mph S11.3 kmh S 17.1 mph27.5 kmh 29.11 in985.8 mb 0.01 in0.3 mm 0.00 in0.0 mm 0.24 in6.1 mm
11:45 PM 47.4°F8.6°C 44.0°F6.7°C 88% 5.2 mph SSE8.4 kmh SSE 19.0 mph30.6 kmh 29.10 in985.4 mb 0.01 in0.3 mm 0.00 in0.0 mm 0.24 in6.1 mm